In Rescue
 
Open Full Screen Window  High Contrast Mode
Wind Gusting 00 knots
14
April 19, 2021 8:03 PM CDT
Weather Information
Wind Direction
  350 °
Wind Speed
  14 kt (16 mph)
Wind Gust
  00 kt (0 mph)
Altimeter
30.08 in
Visibility
10 SM
Temperature
00° C
32° F
Dewpoint
-11° C
12° F
Humidity
44%
1hr Rain Fall
00.00 in.
24hr Rain Fall
00.00 in.
Sky Condition
Overcast @ 6,000 ft
VFR

METAR KFGN 200103Z AUTO 35014KT 10SM OVC060 00/M11 A3008 RMK AO2

FAA Disclaimer: The data displayed is for advisory purposes only and is not to be used for flight planning or operations.